sensor_id;sensor_type;location;lat;lon;timestamp;temperature;humidity
45012;DHT22;63444;48.148;11.542;2024-02-23T00:01:56;9.90;99.90
45012;DHT22;63444;48.148;11.542;2024-02-23T00:04:22;9.80;99.90
45012;DHT22;63444;48.148;11.542;2024-02-23T00:06:48;9.70;99.90
45012;DHT22;63444;48.148;11.542;2024-02-23T00:09:13;9.70;99.90
45012;DHT22;63444;48.148;11.542;2024-02-23T00:11:40;9.70;99.90
45012;DHT22;63444;48.148;11.542;2024-02-23T00:14:10;9.70;99.90
45012;DHT22;63444;48.148;11.542;2024-02-23T00:16:41;9.70;99.90
45012;DHT22;63444;48.148;11.542;2024-02-23T00:19:10;9.70;99.90
45012;DHT22;63444;48.148;11.542;2024-02-23T00:21:39;9.70;99.90
45012;DHT22;63444;48.148;11.542;2024-02-23T00:24:08;9.60;99.90
45012;DHT22;63444;48.148;11.542;2024-02-23T00:26:33;9.60;99.90
45012;DHT22;63444;48.148;11.542;2024-02-23T00:28:59;9.60;99.90
45012;DHT22;63444;48.148;11.542;2024-02-23T00:31:24;9.60;99.90
45012;DHT22;63444;48.148;11.542;2024-02-23T00:33:50;9.50;99.90
45012;DHT22;63444;48.148;11.542;2024-02-23T00:36:16;9.40;99.90
45012;DHT22;63444;48.148;11.542;2024-02-23T00:38:42;9.40;99.90
45012;DHT22;63444;48.148;11.542;2024-02-23T00:41:08;9.40;99.90
45012;DHT22;63444;48.148;11.542;2024-02-23T00:43:40;9.40;99.90
45012;DHT22;63444;48.148;11.542;2024-02-23T00:46:07;9.40;99.90
45012;DHT22;63444;48.148;11.542;2024-02-23T00:48:32;9.40;99.90
45012;DHT22;63444;48.148;11.542;2024-02-23T00:50:58;9.30;99.90
45012;DHT22;63444;48.148;11.542;2024-02-23T00:53:23;9.30;99.90
45012;DHT22;63444;48.148;11.542;2024-02-23T00:55:49;9.20;99.90
45012;DHT22;63444;48.148;11.542;2024-02-23T00:58:15;9.30;99.90
45012;DHT22;63444;48.148;11.542;2024-02-23T01:00:41;9.20;99.90
45012;DHT22;63444;48.148;11.542;2024-02-23T01:03:07;9.20;99.90
45012;DHT22;63444;48.148;11.542;2024-02-23T01:05:33;9.20;99.90
45012;DHT22;63444;48.148;11.542;2024-02-23T01:07:58;9.20;99.90
45012;DHT22;63444;48.148;11.542;2024-02-23T01:10:24;9.10;99.90
45012;DHT22;63444;48.148;11.542;2024-02-23T01:12:49;9.10;99.90
45012;DHT22;63444;48.148;11.542;2024-02-23T01:15:15;9.10;99.90
45012;DHT22;63444;48.148;11.542;2024-02-23T01:17:41;9.10;99.90
45012;DHT22;63444;48.148;11.542;2024-02-23T01:20:07;9.10;99.90
45012;DHT22;63444;48.148;11.542;2024-02-23T01:22:32;9.00;99.90
45012;DHT22;63444;48.148;11.542;2024-02-23T01:24:58;9.00;99.90
45012;DHT22;63444;48.148;11.542;2024-02-23T01:27:23;8.90;99.90
45012;DHT22;63444;48.148;11.542;2024-02-23T01:29:49;8.90;99.90
45012;DHT22;63444;48.148;11.542;2024-02-23T01:32:15;8.90;99.90
45012;DHT22;63444;48.148;11.542;2024-02-23T01:34:40;8.90;99.90
45012;DHT22;63444;48.148;11.542;2024-02-23T01:37:06;8.90;99.90
45012;DHT22;63444;48.148;11.542;2024-02-23T01:39:31;8.90;99.90
45012;DHT22;63444;48.148;11.542;2024-02-23T01:41:57;8.90;99.90
45012;DHT22;63444;48.148;11.542;2024-02-23T01:44:24;8.90;99.90
45012;DHT22;63444;48.148;11.542;2024-02-23T01:46:50;8.90;99.90
45012;DHT22;63444;48.148;11.542;2024-02-23T01:49:16;8.90;99.90
45012;DHT22;63444;48.148;11.542;2024-02-23T01:51:42;8.80;99.90
45012;DHT22;63444;48.148;11.542;2024-02-23T01:54:08;8.80;99.90
45012;DHT22;63444;48.148;11.542;2024-02-23T01:56:35;8.80;99.90
45012;DHT22;63444;48.148;11.542;2024-02-23T01:59:02;8.90;99.90
45012;DHT22;63444;48.148;11.542;2024-02-23T02:01:30;8.80;99.90
45012;DHT22;63444;48.148;11.542;2024-02-23T02:03:56;8.80;99.90
45012;DHT22;63444;48.148;11.542;2024-02-23T02:06:23;8.70;99.90
45012;DHT22;63444;48.148;11.542;2024-02-23T02:08:48;8.80;99.90
45012;DHT22;63444;48.148;11.542;2024-02-23T02:11:14;8.80;99.90
45012;DHT22;63444;48.148;11.542;2024-02-23T02:13:40;8.80;99.90
45012;DHT22;63444;48.148;11.542;2024-02-23T02:16:06;8.70;99.90
45012;DHT22;63444;48.148;11.542;2024-02-23T02:18:32;8.70;99.90
45012;DHT22;63444;48.148;11.542;2024-02-23T02:20:58;8.70;99.90
45012;DHT22;63444;48.148;11.542;2024-02-23T02:23:24;8.70;99.90
45012;DHT22;63444;48.148;11.542;2024-02-23T02:25:58;8.70;99.90
45012;DHT22;63444;48.148;11.542;2024-02-23T02:28:25;8.60;99.90
45012;DHT22;63444;48.148;11.542;2024-02-23T02:30:51;8.50;99.90
45012;DHT22;63444;48.148;11.542;2024-02-23T02:33:18;8.40;99.90
45012;DHT22;63444;48.148;11.542;2024-02-23T02:35:44;8.30;99.90
45012;DHT22;63444;48.148;11.542;2024-02-23T02:38:10;8.30;99.90
45012;DHT22;63444;48.148;11.542;2024-02-23T02:40:36;8.30;99.90
45012;DHT22;63444;48.148;11.542;2024-02-23T02:43:03;8.30;99.90
45012;DHT22;63444;48.148;11.542;2024-02-23T02:45:28;8.20;99.90
45012;DHT22;63444;48.148;11.542;2024-02-23T02:47:54;8.30;99.90
45012;DHT22;63444;48.148;11.542;2024-02-23T02:50:20;8.30;99.90
45012;DHT22;63444;48.148;11.542;2024-02-23T02:52:46;8.30;99.90
45012;DHT22;63444;48.148;11.542;2024-02-23T02:55:12;8.30;99.90
45012;DHT22;63444;48.148;11.542;2024-02-23T02:57:38;8.30;99.90
45012;DHT22;63444;48.148;11.542;2024-02-23T03:00:05;8.30;99.90
45012;DHT22;63444;48.148;11.542;2024-02-23T03:02:33;8.30;99.90
45012;DHT22;63444;48.148;11.542;2024-02-23T03:04:59;8.30;99.90
45012;DHT22;63444;48.148;11.542;2024-02-23T03:07:25;8.30;99.90
45012;DHT22;63444;48.148;11.542;2024-02-23T03:09:50;8.20;99.90
45012;DHT22;63444;48.148;11.542;2024-02-23T03:12:16;8.30;99.90
45012;DHT22;63444;48.148;11.542;2024-02-23T03:14:43;8.20;99.90
45012;DHT22;63444;48.148;11.542;2024-02-23T03:17:09;8.20;99.90
45012;DHT22;63444;48.148;11.542;2024-02-23T03:19:35;8.10;99.90
45012;DHT22;63444;48.148;11.542;2024-02-23T03:22:00;8.10;99.90
45012;DHT22;63444;48.148;11.542;2024-02-23T03:24:26;8.20;99.90
45012;DHT22;63444;48.148;11.542;2024-02-23T03:26:52;8.20;99.90
45012;DHT22;63444;48.148;11.542;2024-02-23T03:29:17;8.20;99.90
45012;DHT22;63444;48.148;11.542;2024-02-23T03:31:43;8.10;99.90
45012;DHT22;63444;48.148;11.542;2024-02-23T03:34:08;8.20;99.90
45012;DHT22;63444;48.148;11.542;2024-02-23T03:36:36;8.10;99.90
45012;DHT22;63444;48.148;11.542;2024-02-23T03:39:01;8.20;99.90
45012;DHT22;63444;48.148;11.542;2024-02-23T03:41:27;8.20;99.90
45012;DHT22;63444;48.148;11.542;2024-02-23T03:43:53;8.20;99.90
45012;DHT22;63444;48.148;11.542;2024-02-23T03:46:18;8.20;99.90
45012;DHT22;63444;48.148;11.542;2024-02-23T03:48:45;8.20;99.90
45012;DHT22;63444;48.148;11.542;2024-02-23T03:51:11;8.20;99.90
45012;DHT22;63444;48.148;11.542;2024-02-23T03:53:36;8.20;99.90
45012;DHT22;63444;48.148;11.542;2024-02-23T03:56:02;8.20;99.90
45012;DHT22;63444;48.148;11.542;2024-02-23T03:58:28;8.10;99.90
45012;DHT22;63444;48.148;11.542;2024-02-23T04:00:54;7.90;99.90
45012;DHT22;63444;48.148;11.542;2024-02-23T04:03:20;7.90;99.90
45012;DHT22;63444;48.148;11.542;2024-02-23T04:05:45;7.80;99.90
45012;DHT22;63444;48.148;11.542;2024-02-23T04:08:11;7.70;99.90
45012;DHT22;63444;48.148;11.542;2024-02-23T04:10:36;7.60;99.90
45012;DHT22;63444;48.148;11.542;2024-02-23T04:13:02;7.60;99.90
45012;DHT22;63444;48.148;11.542;2024-02-23T04:15:28;7.50;99.90
45012;DHT22;63444;48.148;11.542;2024-02-23T04:17:54;7.40;99.90
45012;DHT22;63444;48.148;11.542;2024-02-23T04:20:19;7.50;99.90
45012;DHT22;63444;48.148;11.542;2024-02-23T04:22:45;7.50;99.90
45012;DHT22;63444;48.148;11.542;2024-02-23T04:25:11;7.50;99.90
45012;DHT22;63444;48.148;11.542;2024-02-23T04:27:37;7.60;99.90
45012;DHT22;63444;48.148;11.542;2024-02-23T04:30:03;7.60;99.90
45012;DHT22;63444;48.148;11.542;2024-02-23T04:32:29;7.70;99.90
45012;DHT22;63444;48.148;11.542;2024-02-23T04:34:55;7.70;99.90
45012;DHT22;63444;48.148;11.542;2024-02-23T04:37:21;7.70;99.90
45012;DHT22;63444;48.148;11.542;2024-02-23T04:39:46;7.60;99.90
45012;DHT22;63444;48.148;11.542;2024-02-23T04:42:12;7.50;99.90
45012;DHT22;63444;48.148;11.542;2024-02-23T04:44:38;7.50;99.90
45012;DHT22;63444;48.148;11.542;2024-02-23T04:47:03;7.40;99.90
45012;DHT22;63444;48.148;11.542;2024-02-23T04:49:29;7.30;99.90
45012;DHT22;63444;48.148;11.542;2024-02-23T04:51:54;7.30;99.90
45012;DHT22;63444;48.148;11.542;2024-02-23T04:54:20;7.30;99.90
45012;DHT22;63444;48.148;11.542;2024-02-23T04:56:47;7.30;99.90
45012;DHT22;63444;48.148;11.542;2024-02-23T04:59:13;7.30;99.90
45012;DHT22;63444;48.148;11.542;2024-02-23T05:01:39;7.30;99.90
45012;DHT22;63444;48.148;11.542;2024-02-23T05:04:05;7.30;99.90
45012;DHT22;63444;48.148;11.542;2024-02-23T05:06:30;7.40;99.90
45012;DHT22;63444;48.148;11.542;2024-02-23T05:08:56;7.40;99.90
45012;DHT22;63444;48.148;11.542;2024-02-23T05:11:22;7.40;99.90
45012;DHT22;63444;48.148;11.542;2024-02-23T05:13:48;7.40;99.90
45012;DHT22;63444;48.148;11.542;2024-02-23T05:16:14;7.40;99.90
45012;DHT22;63444;48.148;11.542;2024-02-23T05:18:40;7.40;99.90
45012;DHT22;63444;48.148;11.542;2024-02-23T05:21:06;7.40;99.90
45012;DHT22;63444;48.148;11.542;2024-02-23T05:23:32;7.30;99.90
45012;DHT22;63444;48.148;11.542;2024-02-23T05:25:58;7.40;99.90
45012;DHT22;63444;48.148;11.542;2024-02-23T05:28:23;7.40;99.90
45012;DHT22;63444;48.148;11.542;2024-02-23T05:30:50;7.50;99.90
45012;DHT22;63444;48.148;11.542;2024-02-23T05:33:16;7.50;99.90
45012;DHT22;63444;48.148;11.542;2024-02-23T05:35:46;7.50;99.90
45012;DHT22;63444;48.148;11.542;2024-02-23T05:38:14;7.50;99.90
45012;DHT22;63444;48.148;11.542;2024-02-23T05:40:40;7.50;99.90
45012;DHT22;63444;48.148;11.542;2024-02-23T05:43:05;7.40;99.90
45012;DHT22;63444;48.148;11.542;2024-02-23T05:45:31;7.60;99.90
45012;DHT22;63444;48.148;11.542;2024-02-23T05:47:57;7.50;99.90
45012;DHT22;63444;48.148;11.542;2024-02-23T05:50:23;7.50;99.90
45012;DHT22;63444;48.148;11.542;2024-02-23T05:52:49;7.60;99.90
45012;DHT22;63444;48.148;11.542;2024-02-23T05:55:14;7.60;99.90
45012;DHT22;63444;48.148;11.542;2024-02-23T05:57:40;7.60;99.90
45012;DHT22;63444;48.148;11.542;2024-02-23T06:00:06;7.60;99.90
45012;DHT22;63444;48.148;11.542;2024-02-23T06:02:35;7.60;99.90
45012;DHT22;63444;48.148;11.542;2024-02-23T06:05:01;7.60;99.90
45012;DHT22;63444;48.148;11.542;2024-02-23T06:07:26;7.50;99.90
45012;DHT22;63444;48.148;11.542;2024-02-23T06:09:55;7.50;99.90
45012;DHT22;63444;48.148;11.542;2024-02-23T06:12:22;7.50;99.90
45012;DHT22;63444;48.148;11.542;2024-02-23T06:14:47;7.50;99.90
45012;DHT22;63444;48.148;11.542;2024-02-23T06:17:13;7.40;99.90
45012;DHT22;63444;48.148;11.542;2024-02-23T06:19:38;7.50;99.90
45012;DHT22;63444;48.148;11.542;2024-02-23T06:22:04;7.50;99.90
45012;DHT22;63444;48.148;11.542;2024-02-23T06:24:29;7.50;99.90
45012;DHT22;63444;48.148;11.542;2024-02-23T06:26:55;7.50;99.90
45012;DHT22;63444;48.148;11.542;2024-02-23T06:29:23;7.50;99.90
45012;DHT22;63444;48.148;11.542;2024-02-23T06:31:48;7.40;99.90
45012;DHT22;63444;48.148;11.542;2024-02-23T06:34:15;7.50;99.90
45012;DHT22;63444;48.148;11.542;2024-02-23T06:36:41;7.50;99.90
45012;DHT22;63444;48.148;11.542;2024-02-23T06:39:07;7.40;99.90
45012;DHT22;63444;48.148;11.542;2024-02-23T06:41:34;7.40;99.90
45012;DHT22;63444;48.148;11.542;2024-02-23T06:44:00;7.40;99.90
45012;DHT22;63444;48.148;11.542;2024-02-23T06:46:26;7.50;99.90
45012;DHT22;63444;48.148;11.542;2024-02-23T06:48:51;7.40;99.90
45012;DHT22;63444;48.148;11.542;2024-02-23T06:51:17;7.40;99.90
45012;DHT22;63444;48.148;11.542;2024-02-23T06:53:42;7.40;99.90
45012;DHT22;63444;48.148;11.542;2024-02-23T06:56:08;7.40;99.90
45012;DHT22;63444;48.148;11.542;2024-02-23T06:58:34;7.30;99.90
45012;DHT22;63444;48.148;11.542;2024-02-23T07:01:00;7.40;99.90
45012;DHT22;63444;48.148;11.542;2024-02-23T07:03:28;7.40;99.90
45012;DHT22;63444;48.148;11.542;2024-02-23T07:05:53;7.40;99.90
45012;DHT22;63444;48.148;11.542;2024-02-23T07:08:19;7.50;99.90
45012;DHT22;63444;48.148;11.542;2024-02-23T07:10:44;7.40;99.90
45012;DHT22;63444;48.148;11.542;2024-02-23T07:13:10;7.50;99.90
45012;DHT22;63444;48.148;11.542;2024-02-23T07:15:36;7.50;99.90
45012;DHT22;63444;48.148;11.542;2024-02-23T07:18:02;7.50;99.90
45012;DHT22;63444;48.148;11.542;2024-02-23T07:20:28;7.50;99.90
45012;DHT22;63444;48.148;11.542;2024-02-23T07:22:54;7.50;99.90
45012;DHT22;63444;48.148;11.542;2024-02-23T07:25:20;7.50;99.90
45012;DHT22;63444;48.148;11.542;2024-02-23T07:27:46;7.50;99.90
45012;DHT22;63444;48.148;11.542;2024-02-23T07:30:14;7.50;99.90
45012;DHT22;63444;48.148;11.542;2024-02-23T07:32:40;7.60;99.90
45012;DHT22;63444;48.148;11.542;2024-02-23T07:35:05;7.60;99.90
45012;DHT22;63444;48.148;11.542;2024-02-23T07:37:31;7.60;99.90
45012;DHT22;63444;48.148;11.542;2024-02-23T07:39:57;7.60;99.90
45012;DHT22;63444;48.148;11.542;2024-02-23T07:42:22;7.60;99.90
45012;DHT22;63444;48.148;11.542;2024-02-23T07:44:48;7.60;99.90
45012;DHT22;63444;48.148;11.542;2024-02-23T07:47:14;7.60;99.90
45012;DHT22;63444;48.148;11.542;2024-02-23T07:49:39;7.60;99.90
45012;DHT22;63444;48.148;11.542;2024-02-23T07:52:06;7.60;99.90
45012;DHT22;63444;48.148;11.542;2024-02-23T07:54:32;7.60;99.90
45012;DHT22;63444;48.148;11.542;2024-02-23T07:56:58;7.60;99.90
45012;DHT22;63444;48.148;11.542;2024-02-23T07:59:24;7.60;99.90
45012;DHT22;63444;48.148;11.542;2024-02-23T08:01:50;7.60;99.90
45012;DHT22;63444;48.148;11.542;2024-02-23T08:04:16;7.60;99.90
45012;DHT22;63444;48.148;11.542;2024-02-23T08:06:42;7.60;99.90
45012;DHT22;63444;48.148;11.542;2024-02-23T08:09:10;7.60;99.90
45012;DHT22;63444;48.148;11.542;2024-02-23T08:11:36;7.60;99.90
45012;DHT22;63444;48.148;11.542;2024-02-23T08:14:01;7.60;99.90
45012;DHT22;63444;48.148;11.542;2024-02-23T08:16:29;7.70;99.90
45012;DHT22;63444;48.148;11.542;2024-02-23T08:18:54;7.70;99.90
45012;DHT22;63444;48.148;11.542;2024-02-23T08:21:20;7.70;99.90
45012;DHT22;63444;48.148;11.542;2024-02-23T08:23:46;7.70;99.90
45012;DHT22;63444;48.148;11.542;2024-02-23T08:26:12;7.70;99.90
45012;DHT22;63444;48.148;11.542;2024-02-23T08:28:37;7.80;99.90
45012;DHT22;63444;48.148;11.542;2024-02-23T08:31:03;7.80;99.90
45012;DHT22;63444;48.148;11.542;2024-02-23T08:33:29;7.80;99.90
45012;DHT22;63444;48.148;11.542;2024-02-23T08:35:55;7.80;99.90
45012;DHT22;63444;48.148;11.542;2024-02-23T08:38:20;7.80;99.90
45012;DHT22;63444;48.148;11.542;2024-02-23T08:40:46;7.90;99.90
45012;DHT22;63444;48.148;11.542;2024-02-23T08:43:13;7.90;99.90
45012;DHT22;63444;48.148;11.542;2024-02-23T08:45:38;7.90;99.90
45012;DHT22;63444;48.148;11.542;2024-02-23T08:48:04;8.00;99.90
45012;DHT22;63444;48.148;11.542;2024-02-23T08:50:30;8.00;99.90
45012;DHT22;63444;48.148;11.542;2024-02-23T08:52:56;8.00;99.90
45012;DHT22;63444;48.148;11.542;2024-02-23T08:55:21;8.00;99.90
45012;DHT22;63444;48.148;11.542;2024-02-23T08:57:47;8.00;99.90
45012;DHT22;63444;48.148;11.542;2024-02-23T09:00:13;8.10;99.90
45012;DHT22;63444;48.148;11.542;2024-02-23T09:02:40;8.10;99.90
45012;DHT22;63444;48.148;11.542;2024-02-23T09:05:08;8.10;99.90
45012;DHT22;63444;48.148;11.542;2024-02-23T09:07:34;8.10;99.90
45012;DHT22;63444;48.148;11.542;2024-02-23T09:09:59;8.00;99.90
45012;DHT22;63444;48.148;11.542;2024-02-23T09:12:25;8.00;99.90
45012;DHT22;63444;48.148;11.542;2024-02-23T09:14:51;8.10;99.90
45012;DHT22;63444;48.148;11.542;2024-02-23T09:17:17;8.00;99.90
45012;DHT22;63444;48.148;11.542;2024-02-23T09:19:44;8.00;99.90
45012;DHT22;63444;48.148;11.542;2024-02-23T09:22:10;7.90;99.90
45012;DHT22;63444;48.148;11.542;2024-02-23T09:24:39;7.90;99.90
45012;DHT22;63444;48.148;11.542;2024-02-23T09:27:05;8.00;99.90
45012;DHT22;63444;48.148;11.542;2024-02-23T09:29:30;7.90;99.90
45012;DHT22;63444;48.148;11.542;2024-02-23T09:31:56;7.90;99.90
45012;DHT22;63444;48.148;11.542;2024-02-23T09:34:21;7.90;99.90
45012;DHT22;63444;48.148;11.542;2024-02-23T09:36:47;7.90;99.90
45012;DHT22;63444;48.148;11.542;2024-02-23T09:39:13;7.90;99.90
45012;DHT22;63444;48.148;11.542;2024-02-23T09:41:39;7.90;99.90
45012;DHT22;63444;48.148;11.542;2024-02-23T09:44:05;7.90;99.90
45012;DHT22;63444;48.148;11.542;2024-02-23T09:46:33;8.00;99.90
45012;DHT22;63444;48.148;11.542;2024-02-23T09:48:59;7.90;99.90
45012;DHT22;63444;48.148;11.542;2024-02-23T09:51:25;7.90;99.90
45012;DHT22;63444;48.148;11.542;2024-02-23T09:53:51;7.90;99.90
45012;DHT22;63444;48.148;11.542;2024-02-23T09:56:17;7.90;99.90
45012;DHT22;63444;48.148;11.542;2024-02-23T09:58:46;7.90;99.90
45012;DHT22;63444;48.148;11.542;2024-02-23T10:01:18;7.90;99.90
45012;DHT22;63444;48.148;11.542;2024-02-23T10:03:47;7.90;99.90
45012;DHT22;63444;48.148;11.542;2024-02-23T10:06:13;7.90;99.90
45012;DHT22;63444;48.148;11.542;2024-02-23T10:08:38;7.90;99.90
45012;DHT22;63444;48.148;11.542;2024-02-23T10:11:04;7.90;99.90
45012;DHT22;63444;48.148;11.542;2024-02-23T10:13:30;7.90;99.90
45012;DHT22;63444;48.148;11.542;2024-02-23T10:15:56;7.90;99.90
45012;DHT22;63444;48.148;11.542;2024-02-23T10:18:22;7.90;99.90
45012;DHT22;63444;48.148;11.542;2024-02-23T10:20:48;7.90;99.90
45012;DHT22;63444;48.148;11.542;2024-02-23T10:23:15;7.90;99.90
45012;DHT22;63444;48.148;11.542;2024-02-23T10:25:41;7.90;99.90
45012;DHT22;63444;48.148;11.542;2024-02-23T10:28:07;7.90;99.90
45012;DHT22;63444;48.148;11.542;2024-02-23T10:30:33;7.90;99.90
45012;DHT22;63444;48.148;11.542;2024-02-23T10:32:59;7.90;99.90
45012;DHT22;63444;48.148;11.542;2024-02-23T10:35:26;7.90;99.90
45012;DHT22;63444;48.148;11.542;2024-02-23T10:37:53;8.00;99.90
45012;DHT22;63444;48.148;11.542;2024-02-23T10:40:20;8.00;99.90
45012;DHT22;63444;48.148;11.542;2024-02-23T10:42:48;8.00;99.90
45012;DHT22;63444;48.148;11.542;2024-02-23T10:45:18;8.10;99.90
45012;DHT22;63444;48.148;11.542;2024-02-23T10:47:44;8.10;99.90
45012;DHT22;63444;48.148;11.542;2024-02-23T10:50:10;8.10;99.90
45012;DHT22;63444;48.148;11.542;2024-02-23T10:52:41;8.10;99.90
45012;DHT22;63444;48.148;11.542;2024-02-23T10:55:08;8.10;99.90
45012;DHT22;63444;48.148;11.542;2024-02-23T10:57:37;8.20;99.90
45012;DHT22;63444;48.148;11.542;2024-02-23T11:00:04;8.20;99.90
45012;DHT22;63444;48.148;11.542;2024-02-23T11:02:36;8.20;99.90
45012;DHT22;63444;48.148;11.542;2024-02-23T11:05:04;8.20;99.90
45012;DHT22;63444;48.148;11.542;2024-02-23T11:07:31;8.20;99.90
45012;DHT22;63444;48.148;11.542;2024-02-23T11:10:01;8.20;99.90
45012;DHT22;63444;48.148;11.542;2024-02-23T11:12:29;8.20;99.90
45012;DHT22;63444;48.148;11.542;2024-02-23T11:14:59;8.10;99.90
45012;DHT22;63444;48.148;11.542;2024-02-23T11:17:32;8.10;99.90
45012;DHT22;63444;48.148;11.542;2024-02-23T11:19:58;8.10;99.90
45012;DHT22;63444;48.148;11.542;2024-02-23T11:22:31;8.10;99.90
45012;DHT22;63444;48.148;11.542;2024-02-23T11:25:01;8.10;99.90
45012;DHT22;63444;48.148;11.542;2024-02-23T11:27:31;8.10;99.90
45012;DHT22;63444;48.148;11.542;2024-02-23T11:30:06;8.10;99.90
45012;DHT22;63444;48.148;11.542;2024-02-23T11:32:40;8.00;99.90
45012;DHT22;63444;48.148;11.542;2024-02-23T11:35:11;8.10;99.90
45012;DHT22;63444;48.148;11.542;2024-02-23T11:37:53;8.00;99.90
45012;DHT22;63444;48.148;11.542;2024-02-23T11:40:30;8.00;99.90
45012;DHT22;63444;48.148;11.542;2024-02-23T11:42:56;8.10;99.90
45012;DHT22;63444;48.148;11.542;2024-02-23T11:45:25;8.10;99.90
45012;DHT22;63444;48.148;11.542;2024-02-23T11:47:53;8.10;99.90
45012;DHT22;63444;48.148;11.542;2024-02-23T11:50:18;8.10;99.90
45012;DHT22;63444;48.148;11.542;2024-02-23T11:52:47;8.10;99.90
45012;DHT22;63444;48.148;11.542;2024-02-23T11:55:17;8.10;99.90
45012;DHT22;63444;48.148;11.542;2024-02-23T11:57:44;8.10;99.90
45012;DHT22;63444;48.148;11.542;2024-02-23T12:00:11;8.10;99.90
45012;DHT22;63444;48.148;11.542;2024-02-23T12:02:36;8.00;99.90
45012;DHT22;63444;48.148;11.542;2024-02-23T12:05:02;8.00;99.90
45012;DHT22;63444;48.148;11.542;2024-02-23T12:07:32;8.00;99.90
45012;DHT22;63444;48.148;11.542;2024-02-23T12:09:58;8.00;99.90
45012;DHT22;63444;48.148;11.542;2024-02-23T12:12:25;8.00;99.90
45012;DHT22;63444;48.148;11.542;2024-02-23T12:14:51;8.00;99.90
45012;DHT22;63444;48.148;11.542;2024-02-23T12:17:17;7.90;99.90
45012;DHT22;63444;48.148;11.542;2024-02-23T12:19:43;7.90;99.90
45012;DHT22;63444;48.148;11.542;2024-02-23T12:22:10;7.90;99.90
45012;DHT22;63444;48.148;11.542;2024-02-23T12:24:36;7.90;99.90
45012;DHT22;63444;48.148;11.542;2024-02-23T12:27:02;7.80;99.90
45012;DHT22;63444;48.148;11.542;2024-02-23T12:29:28;7.70;99.90
45012;DHT22;63444;48.148;11.542;2024-02-23T12:32:06;7.70;99.90
45012;DHT22;63444;48.148;11.542;2024-02-23T12:34:32;7.70;99.90
45012;DHT22;63444;48.148;11.542;2024-02-23T12:36:58;7.70;99.90
45012;DHT22;63444;48.148;11.542;2024-02-23T12:39:24;7.70;99.90
45012;DHT22;63444;48.148;11.542;2024-02-23T12:41:49;7.70;99.90
45012;DHT22;63444;48.148;11.542;2024-02-23T12:44:16;7.70;99.90
45012;DHT22;63444;48.148;11.542;2024-02-23T12:46:42;7.80;99.90
45012;DHT22;63444;48.148;11.542;2024-02-23T12:49:07;7.80;99.90
45012;DHT22;63444;48.148;11.542;2024-02-23T12:51:33;7.80;99.90
45012;DHT22;63444;48.148;11.542;2024-02-23T12:53:59;7.80;99.90
45012;DHT22;63444;48.148;11.542;2024-02-23T12:56:25;7.80;99.90
45012;DHT22;63444;48.148;11.542;2024-02-23T12:58:51;7.70;99.90
45012;DHT22;63444;48.148;11.542;2024-02-23T13:01:19;7.70;99.90
45012;DHT22;63444;48.148;11.542;2024-02-23T13:03:44;7.70;99.90
45012;DHT22;63444;48.148;11.542;2024-02-23T13:06:10;7.70;99.90
45012;DHT22;63444;48.148;11.542;2024-02-23T13:08:35;7.70;99.90
45012;DHT22;63444;48.148;11.542;2024-02-23T13:11:02;7.70;99.90
45012;DHT22;63444;48.148;11.542;2024-02-23T13:13:28;7.70;99.90
45012;DHT22;63444;48.148;11.542;2024-02-23T13:15:54;7.80;99.90
45012;DHT22;63444;48.148;11.542;2024-02-23T13:18:20;7.80;99.90
45012;DHT22;63444;48.148;11.542;2024-02-23T13:20:45;7.70;99.90
45012;DHT22;63444;48.148;11.542;2024-02-23T13:23:11;7.70;99.90
45012;DHT22;63444;48.148;11.542;2024-02-23T13:25:40;7.70;99.90
45012;DHT22;63444;48.148;11.542;2024-02-23T13:28:07;7.70;99.90
45012;DHT22;63444;48.148;11.542;2024-02-23T13:30:34;7.70;99.90
45012;DHT22;63444;48.148;11.542;2024-02-23T13:33:00;7.60;99.90
45012;DHT22;63444;48.148;11.542;2024-02-23T13:35:26;7.60;99.90
45012;DHT22;63444;48.148;11.542;2024-02-23T13:37:51;7.60;99.90
45012;DHT22;63444;48.148;11.542;2024-02-23T13:40:17;7.60;99.90
45012;DHT22;63444;48.148;11.542;2024-02-23T13:42:43;7.60;99.90
45012;DHT22;63444;48.148;11.542;2024-02-23T13:45:11;7.60;99.90
45012;DHT22;63444;48.148;11.542;2024-02-23T13:47:39;7.60;99.90
45012;DHT22;63444;48.148;11.542;2024-02-23T13:50:05;7.70;99.90
45012;DHT22;63444;48.148;11.542;2024-02-23T13:52:31;7.60;99.90
45012;DHT22;63444;48.148;11.542;2024-02-23T13:54:57;7.60;99.90
45012;DHT22;63444;48.148;11.542;2024-02-23T13:57:23;7.60;99.90
45012;DHT22;63444;48.148;11.542;2024-02-23T13:59:48;7.60;99.90
45012;DHT22;63444;48.148;11.542;2024-02-23T14:02:14;7.60;99.90
45012;DHT22;63444;48.148;11.542;2024-02-23T14:04:40;7.50;99.90
45012;DHT22;63444;48.148;11.542;2024-02-23T14:07:07;7.50;99.90
45012;DHT22;63444;48.148;11.542;2024-02-23T14:09:32;7.50;99.90
45012;DHT22;63444;48.148;11.542;2024-02-23T14:11:58;7.50;99.90
45012;DHT22;63444;48.148;11.542;2024-02-23T14:14:24;7.50;99.90
45012;DHT22;63444;48.148;11.542;2024-02-23T14:16:50;7.40;99.90
45012;DHT22;63444;48.148;11.542;2024-02-23T14:19:15;7.40;99.90
45012;DHT22;63444;48.148;11.542;2024-02-23T14:21:41;7.40;99.90
45012;DHT22;63444;48.148;11.542;2024-02-23T14:24:07;7.50;99.90
45012;DHT22;63444;48.148;11.542;2024-02-23T14:26:32;7.40;99.90
45012;DHT22;63444;48.148;11.542;2024-02-23T14:28:59;7.50;99.90
45012;DHT22;63444;48.148;11.542;2024-02-23T14:31:25;7.50;99.90
45012;DHT22;63444;48.148;11.542;2024-02-23T14:33:51;7.40;99.90
45012;DHT22;63444;48.148;11.542;2024-02-23T14:36:17;7.40;99.90
45012;DHT22;63444;48.148;11.542;2024-02-23T14:38:43;7.30;99.90
45012;DHT22;63444;48.148;11.542;2024-02-23T14:41:09;7.30;99.90
45012;DHT22;63444;48.148;11.542;2024-02-23T14:43:36;7.30;99.90
45012;DHT22;63444;48.148;11.542;2024-02-23T14:46:02;7.30;99.90
45012;DHT22;63444;48.148;11.542;2024-02-23T14:48:28;7.30;99.90
45012;DHT22;63444;48.148;11.542;2024-02-23T14:50:54;7.20;99.90
45012;DHT22;63444;48.148;11.542;2024-02-23T14:53:19;7.20;99.90
45012;DHT22;63444;48.148;11.542;2024-02-23T14:55:45;7.20;99.90
45012;DHT22;63444;48.148;11.542;2024-02-23T14:58:12;7.20;99.90
45012;DHT22;63444;48.148;11.542;2024-02-23T15:00:37;7.10;99.90
45012;DHT22;63444;48.148;11.542;2024-02-23T15:03:03;7.10;99.90
45012;DHT22;63444;48.148;11.542;2024-02-23T15:05:29;7.00;99.90
45012;DHT22;63444;48.148;11.542;2024-02-23T15:07:55;7.00;99.90
45012;DHT22;63444;48.148;11.542;2024-02-23T15:10:20;7.00;99.90
45012;DHT22;63444;48.148;11.542;2024-02-23T15:12:46;7.00;99.90
45012;DHT22;63444;48.148;11.542;2024-02-23T15:15:12;7.00;99.90
45012;DHT22;63444;48.148;11.542;2024-02-23T15:17:37;6.90;99.90
45012;DHT22;63444;48.148;11.542;2024-02-23T15:20:04;6.90;99.90
45012;DHT22;63444;48.148;11.542;2024-02-23T15:22:30;6.90;99.90
45012;DHT22;63444;48.148;11.542;2024-02-23T15:24:55;6.90;99.90